logo
Search for airport 
image banner adimage banner adimage banner ad
image banner ad

MRGG - G&G

Located in Santa Ana, Costa Rica

ICAO - , IATA -

Data provided by Airmate  

General information

Coordinates: N9°57'3" W84°11'48"
Elevation is 2779 feet MSL.
 
View others Airports in San Jose

Operational data

Special qualification required
Current time UTC:
Current local time:
Weather at : MROC - Juan Santamaria Intl ( 5 km )
METAR: MROC 200700Z 07007KT CAVOK 22/14 A3005 NOSIG
TAF: MROC 200522Z 2006/2106 07009KT 9999 FEW040 TX32/2019Z TN20/2011Z BECMG 2015/2018 25010KT TEMPO 2020/2024 RA SCT020TCU
View NOTAMs / SUP AIP / TFR affecting this airport [VIEW]
Communications frequencies: [VIEW]

Runways:

Airport contact information

Address: Santa Ana Costa Rica

Satellite view of MRGG